createdAt,value
2019-03-30T00:00:12.835Z,8.95
2019-03-30T00:01:12.816Z,8.86
2019-03-30T00:02:12.794Z,8.84
2019-03-30T00:03:12.814Z,8.94
2019-03-30T00:04:12.749Z,8.87
2019-03-30T00:05:12.727Z,8.84
2019-03-30T00:06:12.705Z,8.84
2019-03-30T00:07:12.689Z,8.81
2019-03-30T00:08:12.668Z,8.83
2019-03-30T00:09:12.640Z,8.68
2019-03-30T00:10:12.623Z,8.65
2019-03-30T00:11:12.602Z,8.70
2019-03-30T00:12:12.579Z,8.66
2019-03-30T00:13:12.551Z,8.61
2019-03-30T00:14:12.532Z,8.68
2019-03-30T00:15:12.516Z,8.65
2019-03-30T00:16:12.490Z,8.71
2019-03-30T00:17:12.469Z,8.65
2019-03-30T00:18:12.446Z,8.66
2019-03-30T00:19:12.423Z,8.59
2019-03-30T00:20:12.409Z,8.59
2019-03-30T00:21:12.389Z,8.58
2019-03-30T00:22:12.359Z,8.58
2019-03-30T00:23:12.337Z,8.59
2019-03-30T00:24:12.322Z,8.22
2019-03-30T00:25:12.296Z,8.05
2019-03-30T00:26:12.277Z,7.89
2019-03-30T00:27:12.255Z,7.83
2019-03-30T00:28:12.230Z,7.69
2019-03-30T00:29:12.216Z,7.71
2019-03-30T00:30:12.185Z,7.77
2019-03-30T00:31:12.171Z,7.63
2019-03-30T00:32:12.137Z,7.61
2019-03-30T00:33:12.122Z,7.77
2019-03-30T00:34:12.095Z,7.72
2019-03-30T00:35:12.078Z,7.80
2019-03-30T00:36:12.058Z,7.80
2019-03-30T00:37:12.029Z,7.89
2019-03-30T00:38:12.007Z,7.98
2019-03-30T00:39:11.988Z,8.00
2019-03-30T00:40:11.963Z,7.85
2019-03-30T00:41:11.940Z,7.80
2019-03-30T00:42:11.918Z,7.74
2019-03-30T00:43:11.896Z,7.68
2019-03-30T00:44:11.881Z,7.60
2019-03-30T00:45:11.854Z,7.50
2019-03-30T00:46:11.843Z,7.43
2019-03-30T00:47:11.807Z,7.40
2019-03-30T00:48:11.787Z,7.34
2019-03-30T00:49:11.765Z,7.32
2019-03-30T00:50:11.742Z,7.40
2019-03-30T00:51:11.719Z,7.45
2019-03-30T00:52:11.706Z,7.40
2019-03-30T00:53:11.675Z,7.43
2019-03-30T00:54:11.654Z,7.42
2019-03-30T00:55:11.631Z,7.45
2019-03-30T00:56:11.609Z,7.45
2019-03-30T00:57:11.586Z,7.40
2019-03-30T00:58:11.567Z,7.50
2019-03-30T00:59:11.542Z,7.64
2019-03-30T01:00:11.524Z,7.63
2019-03-30T01:01:11.501Z,7.71
2019-03-30T01:02:11.476Z,7.68
2019-03-30T01:03:11.453Z,7.68
2019-03-30T01:04:11.434Z,7.61
2019-03-30T01:05:11.418Z,7.42
2019-03-30T01:06:11.389Z,7.40
2019-03-30T01:07:11.366Z,7.27
2019-03-30T01:08:11.345Z,7.27
2019-03-30T01:09:11.328Z,7.37
2019-03-30T01:10:11.299Z,7.23
2019-03-30T01:11:11.278Z,7.21
2019-03-30T01:12:11.253Z,7.20
2019-03-30T01:13:11.232Z,7.02
2019-03-30T01:14:11.212Z,6.94
2019-03-30T01:15:11.186Z,6.92
2019-03-30T01:16:11.170Z,6.98
2019-03-30T01:17:11.145Z,6.95
2019-03-30T01:18:11.122Z,6.97
2019-03-30T01:19:11.106Z,6.94
2019-03-30T01:20:11.077Z,6.92
2019-03-30T01:21:11.101Z,7.06
2019-03-30T01:22:11.041Z,7.09
2019-03-30T01:23:11.009Z,7.12
2019-03-30T01:24:10.988Z,7.27
2019-03-30T01:25:10.967Z,7.30
2019-03-30T01:26:10.945Z,7.28
2019-03-30T01:27:10.923Z,7.35
2019-03-30T01:28:10.900Z,7.34
2019-03-30T01:29:10.878Z,7.40
2019-03-30T01:30:22.567Z,7.48
2019-03-30T01:31:10.832Z,7.40
2019-03-30T01:32:10.809Z,7.46
2019-03-30T01:33:10.802Z,7.46
2019-03-30T01:34:10.768Z,7.46
2019-03-30T01:35:10.788Z,7.45
2019-03-30T01:36:10.724Z,7.48
2019-03-30T01:37:10.698Z,7.50
2019-03-30T01:38:10.676Z,7.57
2019-03-30T01:39:10.653Z,7.68
2019-03-30T01:40:10.629Z,7.64
2019-03-30T01:41:10.616Z,7.72
2019-03-30T01:42:10.587Z,7.61
2019-03-30T01:43:10.562Z,7.71
2019-03-30T01:44:10.542Z,7.71
2019-03-30T01:45:10.522Z,7.67
2019-03-30T01:46:10.496Z,7.74
2019-03-30T01:47:10.474Z,7.67
2019-03-30T01:48:10.452Z,7.67
2019-03-30T01:49:10.432Z,7.72
2019-03-30T01:50:17.369Z,7.64
2019-03-30T01:51:10.394Z,7.69
2019-03-30T01:52:10.362Z,7.71
2019-03-30T01:53:10.341Z,7.72
2019-03-30T01:54:10.322Z,7.79
2019-03-30T01:55:10.370Z,7.69
2019-03-30T01:56:10.274Z,7.80
2019-03-30T01:57:10.252Z,7.74
2019-03-30T01:58:10.229Z,7.72
2019-03-30T01:59:10.210Z,7.71
2019-03-30T02:00:10.188Z,7.68
2019-03-30T02:01:10.167Z,7.63
2019-03-30T02:02:10.142Z,7.68
2019-03-30T02:03:10.119Z,7.69
2019-03-30T02:04:10.097Z,7.64
2019-03-30T02:05:10.076Z,7.69
2019-03-30T02:06:10.060Z,7.63
2019-03-30T02:07:10.029Z,7.72
2019-03-30T02:08:10.008Z,7.69
2019-03-30T02:09:09.984Z,7.72
2019-03-30T02:10:09.969Z,7.64
2019-03-30T02:11:09.942Z,7.49
2019-03-30T02:12:09.927Z,7.45
2019-03-30T02:13:09.898Z,7.30
2019-03-30T02:14:09.872Z,7.17
2019-03-30T02:15:09.850Z,7.03
2019-03-30T02:16:09.827Z,6.84
2019-03-30T02:17:09.816Z,6.64
2019-03-30T02:18:09.794Z,6.55
2019-03-30T02:19:09.760Z,6.56
2019-03-30T02:20:09.737Z,6.40
2019-03-30T02:21:09.718Z,6.41
2019-03-30T02:22:09.698Z,6.34
2019-03-30T02:23:09.670Z,6.46
2019-03-30T02:24:09.647Z,6.46
2019-03-30T02:25:09.627Z,6.41
2019-03-30T02:26:09.603Z,6.36
2019-03-30T02:27:09.592Z,6.38
2019-03-30T02:28:09.562Z,6.33
2019-03-30T02:29:09.535Z,6.28
2019-03-30T02:30:09.515Z,6.25
2019-03-30T02:31:09.507Z,6.17
2019-03-30T02:32:09.472Z,6.28
2019-03-30T02:33:09.449Z,6.40
2019-03-30T02:34:09.429Z,6.30
2019-03-30T02:35:09.409Z,6.38
2019-03-30T02:36:09.468Z,6.44
2019-03-30T02:37:09.357Z,6.54
2019-03-30T02:38:09.335Z,6.64
2019-03-30T02:39:09.311Z,6.64
2019-03-30T02:40:09.289Z,6.77
2019-03-30T02:41:09.266Z,6.80
2019-03-30T02:42:09.244Z,6.84
2019-03-30T02:43:09.220Z,6.91
2019-03-30T02:44:09.207Z,6.94
2019-03-30T02:45:09.181Z,6.92
2019-03-30T02:46:09.153Z,6.98
2019-03-30T02:47:09.130Z,7.02
2019-03-30T02:48:09.114Z,6.88
2019-03-30T02:49:09.085Z,6.97
2019-03-30T02:50:09.066Z,7.03
2019-03-30T02:51:09.043Z,6.95
2019-03-30T02:52:09.028Z,6.89
2019-03-30T02:53:08.995Z,7.07
2019-03-30T02:54:08.973Z,6.94
2019-03-30T02:55:12.583Z,6.89
2019-03-30T02:56:08.931Z,6.95
2019-03-30T02:57:08.910Z,6.94
2019-03-30T02:58:08.886Z,6.91
2019-03-30T02:59:08.861Z,7.06
2019-03-30T03:00:08.838Z,7.06
2019-03-30T03:01:08.817Z,6.97
2019-03-30T03:02:08.803Z,6.89
2019-03-30T03:03:08.774Z,6.79
2019-03-30T03:04:08.750Z,6.70
2019-03-30T03:05:08.732Z,6.74
2019-03-30T03:06:08.703Z,6.77
2019-03-30T03:07:08.684Z,6.84
2019-03-30T03:08:08.661Z,6.84
2019-03-30T03:09:08.636Z,6.84
2019-03-30T03:10:08.614Z,6.88
2019-03-30T03:11:08.590Z,6.92
2019-03-30T03:12:08.575Z,7.05
2019-03-30T03:13:08.547Z,7.07
2019-03-30T03:14:08.533Z,7.06
2019-03-30T03:15:08.499Z,7.16
2019-03-30T03:16:08.477Z,7.15
2019-03-30T03:17:08.454Z,7.16
2019-03-30T03:18:08.431Z,7.12
2019-03-30T03:19:08.412Z,7.06
2019-03-30T03:20:08.397Z,7.05
2019-03-30T03:21:08.850Z,7.10
2019-03-30T03:22:08.343Z,7.03
2019-03-30T03:23:08.329Z,7.09
2019-03-30T03:24:08.296Z,7.06
2019-03-30T03:25:08.273Z,7.03
2019-03-30T03:26:08.250Z,7.15
2019-03-30T03:27:08.228Z,7.12
2019-03-30T03:28:08.223Z,7.25
2019-03-30T03:29:08.184Z,7.23
2019-03-30T03:30:08.170Z,7.24
2019-03-30T03:31:08.149Z,7.37
2019-03-30T03:32:08.129Z,7.37
2019-03-30T03:33:08.095Z,7.43
2019-03-30T03:34:08.109Z,7.45
2019-03-30T03:35:08.081Z,7.46
2019-03-30T03:36:08.054Z,7.35
2019-03-30T03:37:08.009Z,7.24
2019-03-30T03:38:07.987Z,6.92
2019-03-30T03:39:07.956Z,6.87
2019-03-30T03:40:07.939Z,6.66
2019-03-30T03:41:07.915Z,6.56
2019-03-30T03:42:07.897Z,6.56
2019-03-30T03:43:07.870Z,6.61
2019-03-30T03:44:07.850Z,6.61
2019-03-30T03:45:07.823Z,6.66
2019-03-30T03:46:07.812Z,6.73
2019-03-30T03:47:07.777Z,6.88
2019-03-30T03:48:07.759Z,6.80
2019-03-30T03:49:07.747Z,6.74
2019-03-30T03:50:07.710Z,6.81
2019-03-30T03:51:24.582Z,6.85
2019-03-30T03:52:07.672Z,6.77
2019-03-30T03:53:07.642Z,6.74
2019-03-30T03:54:07.628Z,6.77
2019-03-30T03:55:07.598Z,6.76
2019-03-30T03:56:07.586Z,6.69
2019-03-30T03:57:07.552Z,6.66
2019-03-30T03:58:07.532Z,6.62
2019-03-30T03:59:07.551Z,6.59
2019-03-30T04:00:07.487Z,6.66
2019-03-30T04:01:07.474Z,6.58
2019-03-30T04:02:07.439Z,6.59
2019-03-30T04:03:07.416Z,6.61
2019-03-30T04:04:07.397Z,6.62
2019-03-30T04:05:07.375Z,6.64
2019-03-30T04:06:07.351Z,6.76
2019-03-30T04:07:07.328Z,6.80
2019-03-30T04:08:07.301Z,6.79
2019-03-30T04:09:07.282Z,6.80
2019-03-30T04:10:07.424Z,6.94
2019-03-30T04:11:07.233Z,7.06
2019-03-30T04:12:07.211Z,7.05
2019-03-30T04:13:07.328Z,7.12
2019-03-30T04:14:07.181Z,7.16
2019-03-30T04:15:07.145Z,7.15
2019-03-30T04:16:07.124Z,7.25
2019-03-30T04:17:07.101Z,7.07
2019-03-30T04:18:07.078Z,6.87
2019-03-30T04:19:07.060Z,6.67
2019-03-30T04:20:07.048Z,6.38
2019-03-30T04:21:07.009Z,6.51
2019-03-30T04:22:06.988Z,6.41
2019-03-30T04:23:06.965Z,6.44
2019-03-30T04:24:06.942Z,6.15
2019-03-30T04:25:06.918Z,6.19
2019-03-30T04:26:06.895Z,6.15
2019-03-30T04:27:06.872Z,6.03
2019-03-30T04:28:06.851Z,6.00
2019-03-30T04:29:06.826Z,6.01
2019-03-30T04:30:06.812Z,6.04
2019-03-30T04:31:06.791Z,6.03
2019-03-30T04:32:06.757Z,6.11
2019-03-30T04:33:06.736Z,6.04
2019-03-30T04:34:06.715Z,6.00
2019-03-30T04:35:06.693Z,5.83
2019-03-30T04:36:06.757Z,5.78
2019-03-30T04:37:06.647Z,5.78
2019-03-30T04:38:06.623Z,5.72
2019-03-30T04:39:06.604Z,5.65
2019-03-30T04:40:06.578Z,5.65
2019-03-30T04:41:06.553Z,5.71
2019-03-30T04:42:06.533Z,5.71
2019-03-30T04:43:06.507Z,5.82
2019-03-30T04:44:06.486Z,5.85
2019-03-30T04:45:06.463Z,5.94
2019-03-30T04:46:06.439Z,6.01
2019-03-30T04:47:06.418Z,5.96
2019-03-30T04:48:06.395Z,6.19
2019-03-30T04:49:06.372Z,6.18
2019-03-30T04:50:06.536Z,6.33
2019-03-30T04:51:06.323Z,6.22
2019-03-30T04:52:06.303Z,6.31
2019-03-30T04:53:06.280Z,6.14
2019-03-30T04:54:06.256Z,6.00
2019-03-30T04:55:06.234Z,5.91
2019-03-30T04:56:06.210Z,5.97
2019-03-30T04:57:06.189Z,5.99
2019-03-30T04:58:09.046Z,5.94
2019-03-30T04:59:06.139Z,6.01
2019-03-30T05:00:06.118Z,6.00
2019-03-30T05:01:06.098Z,5.91
2019-03-30T05:02:06.077Z,5.94
2019-03-30T05:03:06.051Z,5.94
2019-03-30T05:04:06.026Z,5.91
2019-03-30T05:05:06.003Z,5.94
2019-03-30T05:06:05.981Z,5.93
2019-03-30T05:07:05.961Z,6.00
2019-03-30T05:08:05.934Z,5.96
2019-03-30T05:09:05.910Z,6.08
2019-03-30T05:10:05.887Z,6.06
2019-03-30T05:11:05.869Z,6.04
2019-03-30T05:12:05.843Z,6.06
2019-03-30T05:13:05.817Z,6.04
2019-03-30T05:14:05.795Z,6.12
2019-03-30T05:15:05.773Z,6.06
2019-03-30T05:16:05.749Z,6.11
2019-03-30T05:17:05.727Z,6.00
2019-03-30T05:18:05.712Z,6.00
2019-03-30T05:19:05.683Z,5.78
2019-03-30T05:20:05.658Z,5.71
2019-03-30T05:21:05.638Z,5.60
2019-03-30T05:22:12.127Z,5.49
2019-03-30T05:23:05.593Z,5.46
2019-03-30T05:24:05.567Z,5.45
2019-03-30T05:25:05.541Z,5.31
2019-03-30T05:26:05.524Z,5.36
2019-03-30T05:27:05.500Z,5.30
2019-03-30T05:28:05.476Z,5.39
2019-03-30T05:29:05.453Z,5.42
2019-03-30T05:30:05.439Z,5.39
2019-03-30T05:31:05.404Z,5.36
2019-03-30T05:32:05.381Z,5.31
2019-03-30T05:33:06.432Z,5.38
2019-03-30T05:34:05.348Z,5.40
2019-03-30T05:35:05.340Z,5.51
2019-03-30T05:36:05.308Z,5.64
2019-03-30T05:37:05.273Z,5.51
2019-03-30T05:38:05.251Z,5.67
2019-03-30T05:39:05.216Z,5.71
2019-03-30T05:40:05.201Z,5.89
2019-03-30T05:41:05.177Z,5.91
2019-03-30T05:42:05.149Z,5.94
2019-03-30T05:43:05.127Z,5.99
2019-03-30T05:44:05.109Z,6.01
2019-03-30T05:45:05.083Z,6.12
2019-03-30T05:46:05.067Z,6.11
2019-03-30T05:47:05.036Z,6.21
2019-03-30T05:48:05.013Z,6.17
2019-03-30T05:49:04.989Z,6.21
2019-03-30T05:50:04.967Z,6.17
2019-03-30T05:51:04.942Z,6.12
2019-03-30T05:52:04.919Z,6.17
2019-03-30T05:53:04.895Z,6.31
2019-03-30T05:54:04.881Z,6.12
2019-03-30T05:55:04.858Z,6.27
2019-03-30T05:56:04.825Z,6.36
2019-03-30T05:57:04.802Z,6.37
2019-03-30T05:58:04.786Z,6.36
2019-03-30T05:59:04.756Z,6.36
2019-03-30T06:00:04.735Z,6.49
2019-03-30T06:01:04.710Z,6.46
2019-03-30T06:02:04.692Z,6.41
2019-03-30T06:03:04.665Z,6.51
2019-03-30T06:04:04.645Z,6.59
2019-03-30T06:05:04.619Z,6.64
2019-03-30T06:06:04.597Z,6.62
2019-03-30T06:07:04.573Z,6.66
2019-03-30T06:08:04.550Z,6.73
2019-03-30T06:09:04.537Z,6.76
2019-03-30T06:10:04.510Z,6.79
2019-03-30T06:11:04.482Z,6.84
2019-03-30T06:12:04.460Z,6.92
2019-03-30T06:13:04.436Z,6.88
2019-03-30T06:14:04.416Z,6.91
2019-03-30T06:15:04.403Z,7.09
2019-03-30T06:16:04.369Z,7.13
2019-03-30T06:17:04.348Z,7.10
2019-03-30T06:18:04.321Z,7.15
2019-03-30T06:19:04.297Z,7.21
2019-03-30T06:20:04.280Z,7.23
2019-03-30T06:21:04.254Z,7.31
2019-03-30T06:22:04.227Z,7.27
2019-03-30T06:23:04.218Z,7.32
2019-03-30T06:24:04.184Z,7.34
2019-03-30T06:25:04.163Z,7.30
2019-03-30T06:26:04.149Z,7.32
2019-03-30T06:27:04.113Z,7.39
2019-03-30T06:28:04.090Z,7.35
2019-03-30T06:29:04.070Z,7.35
2019-03-30T06:30:04.044Z,7.43
2019-03-30T06:31:04.035Z,7.48
2019-03-30T06:32:04.005Z,7.46
2019-03-30T06:33:03.986Z,7.53
2019-03-30T06:34:03.953Z,7.57
2019-03-30T06:35:03.930Z,7.60
2019-03-30T06:36:03.912Z,7.68
2019-03-30T06:37:03.889Z,7.63
2019-03-30T06:38:03.862Z,7.60
2019-03-30T06:39:03.842Z,7.64
2019-03-30T06:40:03.820Z,7.72
2019-03-30T06:41:03.795Z,7.83
2019-03-30T06:42:03.779Z,7.79
2019-03-30T06:43:03.754Z,7.89
2019-03-30T06:44:03.816Z,7.89
2019-03-30T06:45:03.703Z,8.00
2019-03-30T06:46:03.679Z,7.98
2019-03-30T06:47:03.662Z,8.02
2019-03-30T06:48:03.634Z,8.11
2019-03-30T06:49:03.620Z,8.11
2019-03-30T06:50:03.605Z,8.25
2019-03-30T06:51:03.571Z,8.20
2019-03-30T06:52:03.546Z,8.25
2019-03-30T06:53:03.522Z,8.33
2019-03-30T06:54:03.500Z,8.40
2019-03-30T06:55:03.478Z,8.41
2019-03-30T06:56:03.463Z,8.53
2019-03-30T06:57:03.434Z,8.61
2019-03-30T06:58:03.415Z,8.65
2019-03-30T06:59:03.393Z,8.70
2019-03-30T07:00:03.365Z,8.66
2019-03-30T07:01:03.348Z,8.76
2019-03-30T07:02:03.320Z,8.80
2019-03-30T07:03:03.298Z,8.86
2019-03-30T07:04:03.275Z,8.89
2019-03-30T07:05:03.257Z,8.98
2019-03-30T07:06:03.234Z,9.10
2019-03-30T07:07:03.225Z,9.05
2019-03-30T07:08:03.194Z,9.11
2019-03-30T07:09:03.169Z,9.29
2019-03-30T07:10:03.143Z,9.36
2019-03-30T07:11:03.120Z,9.28
2019-03-30T07:12:03.104Z,9.39
2019-03-30T07:13:03.087Z,9.43
2019-03-30T07:14:03.054Z,9.58
2019-03-30T07:15:03.032Z,9.65
2019-03-30T07:16:03.008Z,9.68
2019-03-30T07:17:02.991Z,9.78
2019-03-30T07:18:02.980Z,9.90
2019-03-30T07:19:02.944Z,9.83
2019-03-30T07:20:02.932Z,9.91
2019-03-30T07:21:02.905Z,9.94
2019-03-30T07:22:02.883Z,10.02
2019-03-30T07:23:11.616Z,10.04
2019-03-30T07:24:02.850Z,10.04
2019-03-30T07:25:02.814Z,10.05
2019-03-30T07:26:02.797Z,10.20
2019-03-30T07:27:02.769Z,10.18
2019-03-30T07:28:02.753Z,10.22
2019-03-30T07:29:02.723Z,10.27
2019-03-30T07:30:02.704Z,10.33
2019-03-30T07:31:02.680Z,10.38
2019-03-30T07:32:02.740Z,10.41
2019-03-30T07:33:02.643Z,10.34
2019-03-30T07:34:02.635Z,10.51
2019-03-30T07:35:02.601Z,10.53
2019-03-30T07:36:02.574Z,10.66
2019-03-30T07:37:02.561Z,10.67
2019-03-30T07:38:02.553Z,10.68
2019-03-30T07:39:02.505Z,10.76
2019-03-30T07:40:02.486Z,10.85
2019-03-30T07:41:02.466Z,10.88
2019-03-30T07:42:02.445Z,10.89
2019-03-30T07:43:02.419Z,10.96
2019-03-30T07:44:02.401Z,11.07
2019-03-30T07:45:02.382Z,11.09
2019-03-30T07:46:02.359Z,11.11
2019-03-30T07:47:02.342Z,11.15
2019-03-30T07:48:02.326Z,11.22
2019-03-30T07:49:02.292Z,11.28
2019-03-30T07:50:02.272Z,11.36
2019-03-30T07:51:02.257Z,11.33
2019-03-30T07:52:02.235Z,11.42
2019-03-30T07:53:02.206Z,11.42
2019-03-30T07:54:02.185Z,11.44
2019-03-30T07:55:02.166Z,11.49
2019-03-30T07:56:08.215Z,11.52
2019-03-30T07:57:05.491Z,11.61
2019-03-30T07:58:02.203Z,11.72
2019-03-30T07:59:02.086Z,11.67
2019-03-30T08:00:02.057Z,11.79
2019-03-30T08:01:02.038Z,11.79
2019-03-30T08:02:02.015Z,11.82
2019-03-30T08:03:01.994Z,11.95
2019-03-30T08:04:01.996Z,11.91
2019-03-30T08:05:01.950Z,11.90
2019-03-30T08:06:01.929Z,12.02
2019-03-30T08:07:01.907Z,12.02
2019-03-30T08:08:01.886Z,12.07
2019-03-30T08:09:01.866Z,12.14
2019-03-30T08:10:01.859Z,12.05
2019-03-30T08:11:01.828Z,12.10
2019-03-30T08:12:01.802Z,12.12
2019-03-30T08:13:01.793Z,12.27
2019-03-30T08:14:01.763Z,12.20
2019-03-30T08:15:01.744Z,12.24
2019-03-30T08:16:01.720Z,12.20
2019-03-30T08:17:01.710Z,12.34
2019-03-30T08:18:01.684Z,12.37
2019-03-30T08:19:01.665Z,12.42
2019-03-30T08:20:01.644Z,12.53
2019-03-30T08:21:01.619Z,12.53
2019-03-30T08:22:01.597Z,12.62
2019-03-30T08:23:01.598Z,12.60
2019-03-30T08:24:01.561Z,12.59
2019-03-30T08:25:01.545Z,12.67
2019-03-30T08:26:01.520Z,12.79
2019-03-30T08:27:01.498Z,12.82
2019-03-30T08:28:01.481Z,12.78
2019-03-30T08:29:01.455Z,12.82
2019-03-30T08:30:01.455Z,12.85
2019-03-30T08:31:01.436Z,12.93
2019-03-30T08:32:01.393Z,12.95
2019-03-30T08:33:01.369Z,12.95
2019-03-30T08:34:01.354Z,12.96
2019-03-30T08:35:01.334Z,13.08
2019-03-30T08:36:01.308Z,13.14
2019-03-30T08:37:01.287Z,13.19
2019-03-30T08:38:01.267Z,13.25
2019-03-30T08:39:01.250Z,13.22
2019-03-30T08:40:01.227Z,13.33
2019-03-30T08:41:01.209Z,13.48
2019-03-30T08:42:01.186Z,13.45
2019-03-30T08:43:01.163Z,13.48
2019-03-30T08:44:01.151Z,13.59
2019-03-30T08:45:01.163Z,13.54
2019-03-30T08:46:01.111Z,13.59
2019-03-30T08:47:01.088Z,13.60
2019-03-30T08:48:01.064Z,13.64
2019-03-30T08:49:01.050Z,13.70
2019-03-30T08:50:01.029Z,13.77
2019-03-30T08:51:01.005Z,13.78
2019-03-30T08:52:00.987Z,13.84
2019-03-30T08:53:00.982Z,13.96
2019-03-30T08:54:00.968Z,13.97
2019-03-30T08:55:00.926Z,13.96
2019-03-30T08:56:00.904Z,14.00
2019-03-30T08:57:00.896Z,14.07
2019-03-30T08:58:00.870Z,14.04
2019-03-30T08:59:00.844Z,14.06
2019-03-30T09:00:00.825Z,14.04
2019-03-30T09:01:00.807Z,14.14
2019-03-30T09:02:00.785Z,14.07
2019-03-30T09:03:00.776Z,14.22
2019-03-30T09:04:00.744Z,14.15
2019-03-30T09:05:00.727Z,14.12
2019-03-30T09:06:00.707Z,14.14
2019-03-30T09:07:00.689Z,14.15
2019-03-30T09:08:00.669Z,14.18
2019-03-30T09:09:00.646Z,14.21
2019-03-30T09:10:00.653Z,14.29
2019-03-30T09:11:00.617Z,14.36
2019-03-30T09:12:00.584Z,14.45
2019-03-30T09:13:00.569Z,14.57
2019-03-30T09:14:00.548Z,14.61
2019-03-30T09:15:00.531Z,14.68
2019-03-30T09:16:00.516Z,14.69
2019-03-30T09:17:00.490Z,14.69
2019-03-30T09:18:00.487Z,14.70
2019-03-30T09:19:00.457Z,14.77
2019-03-30T09:20:00.578Z,14.89
2019-03-30T09:21:00.429Z,14.98
2019-03-30T09:22:00.396Z,15.01
2019-03-30T09:23:00.369Z,15.14
2019-03-30T09:24:09.530Z,15.13
2019-03-30T09:25:00.528Z,15.17
2019-03-30T09:26:00.322Z,15.25
2019-03-30T09:27:00.298Z,15.29
2019-03-30T09:28:00.285Z,15.31
2019-03-30T09:29:00.257Z,15.34
2019-03-30T09:30:00.386Z,15.39
2019-03-30T09:31:00.215Z,15.34
2019-03-30T09:32:13.541Z,15.35
2019-03-30T09:33:00.174Z,15.39
2019-03-30T09:34:00.172Z,15.44
2019-03-30T09:35:00.238Z,15.36
2019-03-30T09:36:00.203Z,15.41
2019-03-30T09:37:00.095Z,15.47
2019-03-30T09:38:00.076Z,15.39
2019-03-30T09:39:00.056Z,15.53
2019-03-30T09:40:00.040Z,15.47
2019-03-30T09:41:00.025Z,15.50
2019-03-30T09:41:59.997Z,15.59
2019-03-30T09:42:59.977Z,15.68
2019-03-30T09:43:59.958Z,15.67
2019-03-30T09:44:59.942Z,15.62
2019-03-30T09:45:59.921Z,15.64
2019-03-30T09:46:59.907Z,15.67
2019-03-30T09:47:59.888Z,15.64
2019-03-30T09:48:59.871Z,15.67
2019-03-30T09:50:02.392Z,15.68
2019-03-30T09:50:59.837Z,15.60
2019-03-30T09:51:59.805Z,15.72
2019-03-30T09:52:59.787Z,15.86
2019-03-30T09:53:59.768Z,15.92
2019-03-30T09:54:59.844Z,15.96
2019-03-30T09:55:59.752Z,16.04
2019-03-30T09:56:59.709Z,16.08
2019-03-30T09:57:59.690Z,16.12
2019-03-30T09:58:59.678Z,16.11
2019-03-30T09:59:59.651Z,16.27
2019-03-30T10:00:59.632Z,16.24
2019-03-30T10:01:59.624Z,16.27
2019-03-30T10:02:59.611Z,16.23
2019-03-30T10:03:59.575Z,16.27
2019-03-30T10:04:59.557Z,16.24
2019-03-30T10:05:59.537Z,16.31
2019-03-30T10:06:59.525Z,16.24
2019-03-30T10:07:59.499Z,16.30
2019-03-30T10:08:59.478Z,16.35
2019-03-30T10:09:59.464Z,16.34
2019-03-30T10:10:59.450Z,16.49
2019-03-30T10:11:59.424Z,16.48
2019-03-30T10:12:59.412Z,16.49
2019-03-30T10:13:59.389Z,16.58
2019-03-30T10:14:59.371Z,16.60
2019-03-30T10:15:59.356Z,16.52
2019-03-30T10:16:59.334Z,16.57
2019-03-30T10:17:59.319Z,16.70
2019-03-30T10:18:59.295Z,16.79
2019-03-30T10:20:04.512Z,16.73
2019-03-30T10:20:59.258Z,16.79
2019-03-30T10:21:59.245Z,16.81
2019-03-30T10:22:59.222Z,16.82
2019-03-30T10:23:59.200Z,16.71
2019-03-30T10:24:59.246Z,16.78
2019-03-30T10:25:59.163Z,16.88
2019-03-30T10:26:59.159Z,16.89
2019-03-30T10:27:59.128Z,16.91
2019-03-30T10:28:59.108Z,16.89
2019-03-30T10:29:59.103Z,16.88
2019-03-30T10:30:59.078Z,17.01
2019-03-30T10:31:59.992Z,16.98
2019-03-30T10:32:59.035Z,17.04
2019-03-30T10:33:59.014Z,17.04
2019-03-30T10:34:58.997Z,17.18
2019-03-30T10:35:58.981Z,17.21
2019-03-30T10:36:58.965Z,17.21
2019-03-30T10:37:58.938Z,17.34
2019-03-30T10:38:58.922Z,17.38
2019-03-30T10:39:58.907Z,17.41
2019-03-30T10:40:58.895Z,17.31
2019-03-30T10:41:58.877Z,17.26
2019-03-30T10:42:58.855Z,17.36
2019-03-30T10:43:58.827Z,17.33
2019-03-30T10:44:58.811Z,17.31
2019-03-30T10:45:58.802Z,17.23
2019-03-30T10:46:58.789Z,17.36
2019-03-30T10:47:58.757Z,17.33
2019-03-30T10:48:58.742Z,17.28
2019-03-30T10:49:58.718Z,17.33
2019-03-30T10:50:58.701Z,17.26
2019-03-30T10:51:58.682Z,17.34
2019-03-30T10:52:58.679Z,17.51
2019-03-30T10:53:58.660Z,17.49
2019-03-30T10:54:58.629Z,17.43
2019-03-30T10:55:58.608Z,17.44
2019-03-30T10:56:58.591Z,17.62
2019-03-30T10:57:58.976Z,17.63
2019-03-30T10:58:58.553Z,17.64
2019-03-30T10:59:58.542Z,17.66
2019-03-30T11:00:58.597Z,17.81
2019-03-30T11:01:58.507Z,17.87
2019-03-30T11:02:58.480Z,17.90
2019-03-30T11:03:58.489Z,17.96
2019-03-30T11:04:58.478Z,17.97
2019-03-30T11:05:58.429Z,17.81
2019-03-30T11:06:58.409Z,17.82
2019-03-30T11:07:58.393Z,17.79
2019-03-30T11:08:58.378Z,17.86
2019-03-30T11:09:58.358Z,17.79
2019-03-30T11:10:58.342Z,17.96
2019-03-30T11:11:58.361Z,17.95
2019-03-30T11:12:58.313Z,17.95
2019-03-30T11:13:58.285Z,17.86
2019-03-30T11:14:58.286Z,17.93
2019-03-30T11:15:58.248Z,17.99
2019-03-30T11:16:58.230Z,17.99
2019-03-30T11:17:58.224Z,18.10
2019-03-30T11:18:58.194Z,18.12
2019-03-30T11:19:58.183Z,18.12
2019-03-30T11:20:58.186Z,18.15
2019-03-30T11:21:58.147Z,18.15
2019-03-30T11:22:58.135Z,18.10
2019-03-30T11:23:58.106Z,18.17
2019-03-30T11:25:07.153Z,18.29
2019-03-30T11:25:58.075Z,18.33
2019-03-30T11:26:58.062Z,18.36
2019-03-30T11:27:58.035Z,18.45
2019-03-30T11:28:58.023Z,18.47
2019-03-30T11:29:58.002Z,18.48
2019-03-30T11:30:57.985Z,18.42
2019-03-30T11:31:57.964Z,18.55
2019-03-30T11:32:57.945Z,18.54
2019-03-30T11:33:57.926Z,18.60
2019-03-30T11:34:57.916Z,18.50
2019-03-30T11:35:57.896Z,18.44
2019-03-30T11:36:57.883Z,18.44
2019-03-30T11:37:57.858Z,18.47
2019-03-30T11:38:57.848Z,18.50
2019-03-30T11:39:57.826Z,18.47
2019-03-30T11:40:57.804Z,18.33
2019-03-30T11:41:57.792Z,18.30
2019-03-30T11:42:57.768Z,18.32
2019-03-30T11:43:57.749Z,18.42
2019-03-30T11:44:57.748Z,18.41
2019-03-30T11:45:57.721Z,18.47
2019-03-30T11:46:57.697Z,18.50
2019-03-30T11:47:57.676Z,18.51
2019-03-30T11:48:57.706Z,18.58
2019-03-30T11:49:57.645Z,18.60
2019-03-30T11:50:57.633Z,18.47
2019-03-30T11:51:57.607Z,18.29
2019-03-30T11:52:57.601Z,18.18
2019-03-30T11:53:57.579Z,18.14
2019-03-30T11:54:57.563Z,18.00
2019-03-30T11:55:57.535Z,17.78
2019-03-30T11:56:57.525Z,17.78
2019-03-30T11:57:57.501Z,17.71
2019-03-30T11:58:57.493Z,17.51
2019-03-30T11:59:57.468Z,17.63
2019-03-30T12:00:57.448Z,17.74
2019-03-30T12:01:57.432Z,17.78
2019-03-30T12:02:57.417Z,17.99
2019-03-30T12:03:57.457Z,17.97
2019-03-30T12:04:57.377Z,18.11
2019-03-30T12:05:57.376Z,18.14
2019-03-30T12:06:57.341Z,18.08
2019-03-30T12:07:57.318Z,18.21
2019-03-30T12:08:57.303Z,18.21
2019-03-30T12:09:57.283Z,18.29
2019-03-30T12:10:57.267Z,18.32
2019-03-30T12:11:57.250Z,18.23
2019-03-30T12:12:57.231Z,18.15
2019-03-30T12:13:57.214Z,18.15
2019-03-30T12:14:57.198Z,18.23
2019-03-30T12:15:57.176Z,18.32
2019-03-30T12:16:57.160Z,18.50
2019-03-30T12:17:57.141Z,18.52
2019-03-30T12:18:57.137Z,18.62
2019-03-30T12:19:57.108Z,18.58
2019-03-30T12:20:57.090Z,18.65
2019-03-30T12:21:57.077Z,18.57
2019-03-30T12:22:57.072Z,18.42
2019-03-30T12:23:57.032Z,18.27
2019-03-30T12:24:57.024Z,18.25
2019-03-30T12:25:56.998Z,18.21
2019-03-30T12:26:56.980Z,18.17
2019-03-30T12:27:56.962Z,18.10
2019-03-30T12:28:56.946Z,17.96
2019-03-30T12:29:56.938Z,17.86
2019-03-30T12:30:56.911Z,17.77
2019-03-30T12:31:56.899Z,17.66
2019-03-30T12:32:56.875Z,17.63
2019-03-30T12:33:56.863Z,17.64
2019-03-30T12:34:56.839Z,17.58
2019-03-30T12:35:56.824Z,17.63
2019-03-30T12:36:56.807Z,17.59
2019-03-30T12:37:56.794Z,17.62
2019-03-30T12:38:56.767Z,17.64
2019-03-30T12:39:58.451Z,17.74
2019-03-30T12:40:56.732Z,17.74
2019-03-30T12:41:56.719Z,17.78
2019-03-30T12:42:56.696Z,17.79
2019-03-30T12:43:56.687Z,17.96
2019-03-30T12:44:56.660Z,18.12
2019-03-30T12:45:56.649Z,18.21
2019-03-30T12:46:56.625Z,18.18
2019-03-30T12:47:56.603Z,18.30
2019-03-30T12:48:56.584Z,18.25
2019-03-30T12:49:56.570Z,18.10
2019-03-30T12:50:56.550Z,18.14
2019-03-30T12:51:56.530Z,18.14
2019-03-30T12:52:56.513Z,18.17
2019-03-30T12:53:56.498Z,18.30
2019-03-30T12:54:56.476Z,18.45
2019-03-30T12:55:56.460Z,18.57
2019-03-30T12:56:56.441Z,18.44
2019-03-30T12:57:56.434Z,18.42
2019-03-30T12:58:56.406Z,18.42
2019-03-30T13:00:56.370Z,18.48
2019-03-30T13:01:56.363Z,18.58
2019-03-30T13:02:56.333Z,18.57
2019-03-30T13:03:56.317Z,18.45
2019-03-30T13:04:56.299Z,18.35
2019-03-30T13:05:56.278Z,18.29
2019-03-30T13:06:56.261Z,18.33